Time;durP1;ratioP1;P1;durP2;ratioP2;P2;SDS_P1;SDS_P2;PMS_P1;PMS_P2;Temp;Humidity;BMP_temperature;BMP_pressure;BME280_temperature;BME280_humidity;BME280_pressure;Samples;Min_cycle;Max_cycle;Signal;HPM_P1;HPM_P2
2024/01/29 00:01:10;;;;;;;8.48;7.68;;;;;;;2.22;71.11;99263.31;5021342;28;20241;-74
2024/01/29 00:03:36;;;;;;;8.18;7.38;;;;;;;2.26;71.08;99268.28;5028626;28;20217;-74
2024/01/29 00:06:03;;;;;;;8.88;8.05;;;;;;;2.28;71.03;99260.13;5028451;28;20628;-73
2024/01/29 00:08:30;;;;;;;9.60;8.70;;;;;;;2.11;71.99;99266.81;5030925;28;20194;-72
2024/01/29 00:10:58;;;;;;;9.43;8.52;;;;;;;2.14;72.02;99263.03;5029240;28;20198;-72
2024/01/29 00:13:24;;;;;;;10.93;9.82;;;;;;;2.11;72.41;99274.81;5025358;28;20324;-72
2024/01/29 00:15:51;;;;;;;10.00;8.68;;;;;;;2.06;72.71;99271.63;5028046;28;20610;-73
2024/01/29 00:18:18;;;;;;;8.63;7.93;;;;;;;2.06;72.67;99270.78;5028947;28;20208;-75
2024/01/29 00:20:44;;;;;;;9.75;8.85;;;;;;;2.05;72.88;99275.28;5024908;28;20692;-75
2024/01/29 00:23:11;;;;;;;10.18;9.20;;;;;;;1.95;73.19;99274.31;5028996;28;20293;-74
2024/01/29 00:25:37;;;;;;;8.98;8.18;;;;;;;2.00;73.34;99267.63;5028660;28;20316;-74
2024/01/29 00:28:07;;;;;;;11.35;10.23;;;;;;;1.91;73.66;99262.16;5022157;28;20209;-74
2024/01/29 00:30:33;;;;;;;9.80;8.80;;;;;;;1.97;73.57;99267.84;5031580;28;20677;-75
2024/01/29 00:33:00;;;;;;;10.50;9.52;;;;;;;1.97;73.62;99262.50;5018592;28;20201;-72
2024/01/29 00:35:27;;;;;;;9.82;8.82;;;;;;;2.02;73.89;99268.34;5029498;28;20208;-73
2024/01/29 00:37:53;;;;;;;10.20;8.88;;;;;;;2.01;73.77;99266.66;5027696;28;20302;-73
2024/01/29 00:40:20;;;;;;;9.75;8.75;;;;;;;2.08;73.56;99252.84;5028199;28;20587;-73
2024/01/29 00:42:46;;;;;;;10.25;9.23;;;;;;;1.91;74.26;99260.34;5027369;28;20201;-73
2024/01/29 00:45:14;;;;;;;10.80;9.68;;;;;;;1.99;74.38;99254.38;5029142;28;20734;-73
2024/01/29 00:47:41;;;;;;;9.75;8.88;;;;;;;1.97;74.75;99254.50;5039065;28;20220;-73
2024/01/29 00:50:08;;;;;;;10.35;9.32;;;;;;;2.02;74.75;99252.34;5026784;28;20212;-72
2024/01/29 00:52:34;;;;;;;9.90;9.07;;;;;;;2.01;74.79;99252.44;5027687;28;20209;-73
2024/01/29 00:55:01;;;;;;;11.30;10.30;;;;;;;1.95;74.71;99253.78;5029211;28;20273;-72
2024/01/29 00:57:28;;;;;;;11.20;10.10;;;;;;;2.03;74.90;99255.84;5028492;28;20634;-72
2024/01/29 00:59:55;;;;;;;10.75;9.73;;;;;;;2.03;74.81;99255.84;5028175;28;20206;-73
2024/01/29 01:02:23;;;;;;;11.82;10.82;;;;;;;2.12;74.61;99257.81;5028418;28;20221;-73
2024/01/29 01:04:49;;;;;;;13.75;10.85;;;;;;;2.07;74.82;99259.16;5024799;28;20253;-73
2024/01/29 01:07:16;;;;;;;10.90;9.80;;;;;;;2.13;74.82;99259.53;5028961;28;20655;-73
2024/01/29 01:09:42;;;;;;;10.40;9.43;;;;;;;2.15;74.85;99262.06;5027140;28;20292;-72
2024/01/29 01:12:09;;;;;;;10.10;9.07;;;;;;;2.29;74.39;99253.81;5028038;28;20230;-72
2024/01/29 01:14:36;;;;;;;10.00;9.10;;;;;;;2.24;74.55;99256.88;5029102;28;20213;-73
2024/01/29 01:17:03;;;;;;;11.15;10.13;;;;;;;2.31;74.59;99254.56;5028102;28;20245;-73
2024/01/29 01:19:31;;;;;;;11.05;9.95;;;;;;;2.24;74.54;99258.69;5027824;28;20328;-74
2024/01/29 01:21:57;;;;;;;11.65;10.48;;;;;;;2.21;74.78;99254.44;5005780;28;20210;-74
2024/01/29 01:24:24;;;;;;;10.50;9.40;;;;;;;2.16;74.93;99255.78;5021351;28;20208;-74
2024/01/29 01:26:50;;;;;;;11.48;10.38;;;;;;;2.21;74.71;99262.47;5043735;28;20218;-74
2024/01/29 01:29:18;;;;;;;10.73;9.55;;;;;;;2.21;74.75;99261.59;5027471;28;20220;-74
2024/01/29 01:31:44;;;;;;;11.13;9.65;;;;;;;2.09;75.20;99266.06;5028190;28;20674;-74
2024/01/29 01:34:11;;;;;;;10.63;9.63;;;;;;;2.13;74.71;99256.00;5032043;28;20284;-74
2024/01/29 01:36:39;;;;;;;10.52;9.63;;;;;;;2.22;74.88;99263.31;5032586;28;20198;-74
2024/01/29 01:39:05;;;;;;;11.23;10.13;;;;;;;2.23;74.82;99262.34;5029540;28;20194;-74
2024/01/29 01:41:32;;;;;;;10.88;9.88;;;;;;;2.17;74.64;99260.16;5031898;28;20285;-74
2024/01/29 01:43:58;;;;;;;11.15;10.00;;;;;;;2.00;75.31;99256.09;5031420;28;20722;-75
2024/01/29 01:46:25;;;;;;;10.75;9.65;;;;;;;1.96;75.70;99255.47;5033340;28;20230;-75
2024/01/29 01:48:52;;;;;;;11.50;10.30;;;;;;;1.88;75.92;99252.56;5029039;28;20234;-74
2024/01/29 01:51:20;;;;;;;10.45;9.45;;;;;;;1.68;76.55;99261.22;5031990;28;20292;-74
2024/01/29 01:53:49;;;;;;;11.07;9.80;;;;;;;1.74;76.50;99255.41;5032524;28;20220;-74
2024/01/29 01:56:16;;;;;;;11.27;10.18;;;;;;;1.87;76.29;99258.03;5046697;28;20198;-75
2024/01/29 01:58:43;;;;;;;11.00;9.90;;;;;;;1.87;76.08;99256.19;5027179;28;20213;-75
2024/01/29 02:01:09;;;;;;;10.75;9.75;;;;;;;1.77;76.68;99255.19;5028367;28;20559;-74
2024/01/29 02:03:36;;;;;;;12.90;10.63;;;;;;;1.69;76.95;99262.91;5030190;28;20198;-74
2024/01/29 02:06:03;;;;;;;11.00;9.98;;;;;;;1.69;77.01;99262.91;5030051;28;20221;-74
2024/01/29 02:08:30;;;;;;;11.38;10.20;;;;;;;1.63;77.29;99258.03;5026110;28;20693;-74
2024/01/29 02:10:59;;;;;;;12.15;10.35;;;;;;;1.55;77.41;99263.13;5030873;28;20263;-74
2024/01/29 02:13:26;;;;;;;13.20;10.10;;;;;;;1.47;77.74;99253.03;5032444;28;20198;-74
2024/01/29 02:15:52;;;;;;;11.50;10.50;;;;;;;1.49;78.13;99260.91;5021686;28;20208;-74
2024/01/29 02:18:19;;;;;;;11.90;10.73;;;;;;;1.41;78.10;99252.63;5029023;28;20356;-74
2024/01/29 02:20:45;;;;;;;10.80;9.80;;;;;;;1.51;77.76;99251.84;5013177;28;20202;-74
2024/01/29 02:23:13;;;;;;;11.30;10.18;;;;;;;1.60;77.54;99250.31;5031046;28;20198;-74
2024/01/29 02:25:40;;;;;;;12.25;11.15;;;;;;;1.49;78.10;99250.25;5038970;28;20221;-74
2024/01/29 02:28:06;;;;;;;13.38;11.95;;;;;;;1.39;78.57;99252.75;5028169;28;20300;-74
2024/01/29 02:30:34;;;;;;;13.27;11.85;;;;;;;1.33;78.68;99256.72;5031032;28;20202;-75
2024/01/29 02:33:01;;;;;;;13.27;11.98;;;;;;;1.38;78.85;99252.84;5009755;28;20671;-74
2024/01/29 02:35:27;;;;;;;12.15;10.95;;;;;;;1.35;79.00;99257.44;5026500;28;20293;-75
2024/01/29 02:37:54;;;;;;;13.05;11.75;;;;;;;1.44;78.74;99252.41;5030762;28;20237;-75
2024/01/29 02:40:22;;;;;;;14.13;12.77;;;;;;;1.32;79.11;99249.69;5029592;28;20210;-75
2024/01/29 02:42:48;;;;;;;13.60;12.10;;;;;;;1.38;78.97;99253.72;5029749;28;20206;-75
2024/01/29 02:45:15;;;;;;;13.38;12.07;;;;;;;1.46;78.71;99253.16;5032110;28;20209;-74
2024/01/29 02:47:41;;;;;;;13.75;12.27;;;;;;;1.38;78.98;99250.19;5012832;28;20548;-74
2024/01/29 02:50:09;;;;;;;14.25;12.85;;;;;;;1.34;79.14;99252.22;5024469;28;20309;-75
2024/01/29 02:52:35;;;;;;;14.77;11.27;;;;;;;1.35;79.15;99249.44;5026932;28;20201;-75
2024/01/29 02:55:02;;;;;;;13.70;12.30;;;;;;;1.41;78.87;99253.47;5022411;28;20212;-75
2024/01/29 02:57:30;;;;;;;14.32;12.85;;;;;;;1.35;79.27;99249.44;5029308;28;20300;-75
2024/01/29 02:59:56;;;;;;;13.32;12.00;;;;;;;1.37;79.21;99245.81;5029272;28;20235;-75
2024/01/29 03:02:23;;;;;;;14.35;12.95;;;;;;;1.34;79.46;99253.09;5029243;28;20707;-75
2024/01/29 03:04:52;;;;;;;12.73;11.45;;;;;;;1.32;79.35;99254.16;5030214;28;20212;-75
2024/01/29 03:07:18;;;;;;;15.10;13.02;;;;;;;1.30;79.71;99253.44;5031037;28;20308;-74
2024/01/29 03:09:45;;;;;;;14.40;12.55;;;;;;;1.32;79.68;99252.34;5024187;28;20285;-75
2024/01/29 03:12:11;;;;;;;12.60;11.40;;;;;;;1.38;79.35;99247.53;5021520;28;20205;-74
2024/01/29 03:14:41;;;;;;;13.15;11.85;;;;;;;1.45;79.33;99243.44;5029730;28;20193;-75
2024/01/29 03:17:08;;;;;;;13.32;12.02;;;;;;;1.41;79.51;99241.97;5028888;28;20647;-75
2024/01/29 03:19:34;;;;;;;12.90;11.80;;;;;;;1.49;79.23;99244.91;5030234;28;20285;-74
2024/01/29 03:22:01;;;;;;;13.90;12.60;;;;;;;1.52;79.12;99242.00;5027680;28;20201;-75
2024/01/29 03:24:27;;;;;;;14.50;13.02;;;;;;;1.42;79.10;99249.84;5028831;28;20667;-75
2024/01/29 03:26:54;;;;;;;13.30;11.60;;;;;;;1.40;79.62;99240.25;5029256;28;20228;-74
2024/01/29 03:29:21;;;;;;;11.82;10.73;;;;;;;1.31;79.86;99252.44;5010047;28;20587;-75
2024/01/29 03:31:48;;;;;;;11.75;10.70;;;;;;;1.44;79.62;99241.72;5022313;28;20202;-75
2024/01/29 03:34:15;;;;;;;12.45;10.00;;;;;;;1.49;78.44;99239.56;5028457;28;20213;-74
2024/01/29 03:36:43;;;;;;;10.82;9.73;;;;;;;1.66;78.44;99247.13;5031087;28;20206;-74
2024/01/29 03:39:09;;;;;;;11.88;10.77;;;;;;;1.69;78.18;99238.91;5036678;28;20205;-73
2024/01/29 03:41:36;;;;;;;12.57;11.27;;;;;;;1.67;78.36;99248.84;5028932;28;20225;-73
2024/01/29 03:44:02;;;;;;;14.05;11.40;;;;;;;1.57;78.42;99242.53;5027422;28;20209;-74
2024/01/29 03:46:29;;;;;;;12.32;11.05;;;;;;;1.57;78.19;99234.53;5031336;28;20567;-73
2024/01/29 03:48:57;;;;;;;12.00;10.70;;;;;;;1.63;78.07;99242.03;5023539;28;20204;-73
2024/01/29 03:51:24;;;;;;;13.20;11.23;;;;;;;1.66;77.81;99236.47;5026371;28;20208;-74
2024/01/29 03:53:50;;;;;;;12.18;10.88;;;;;;;1.65;77.81;99243.63;5044466;28;20201;-74
2024/01/29 03:56:17;;;;;;;11.50;10.50;;;;;;;1.60;77.91;99239.63;5027106;28;20198;-74
2024/01/29 03:58:43;;;;;;;11.75;10.55;;;;;;;1.58;78.23;99241.56;5028670;28;20205;-74
2024/01/29 04:01:10;;;;;;;13.15;10.70;;;;;;;1.61;77.91;99250.19;5027709;28;20702;-74
2024/01/29 04:03:38;;;;;;;12.00;10.82;;;;;;;1.51;78.27;99242.97;5028031;28;20567;-74
2024/01/29 04:06:07;;;;;;;12.63;10.45;;;;;;;1.54;78.05;99248.09;5026734;28;20220;-74
2024/01/29 04:08:34;;;;;;;12.30;11.02;;;;;;;1.51;77.92;99242.97;5027859;28;20216;-74
2024/01/29 04:11:00;;;;;;;11.30;10.23;;;;;;;1.43;78.39;99237.38;5028703;28;20293;-74
2024/01/29 04:13:27;;;;;;;14.60;12.00;;;;;;;1.33;78.66;99238.03;5029046;28;20212;-74
2024/01/29 04:15:54;;;;;;;14.40;10.65;;;;;;;1.37;78.24;99237.81;5028155;28;20194;-74
2024/01/29 04:18:20;;;;;;;10.30;9.38;;;;;;;1.35;78.24;99238.78;5022154;28;20198;-74
2024/01/29 04:20:48;;;;;;;11.60;10.40;;;;;;;1.43;78.10;99246.22;5026725;28;20232;-74
2024/01/29 04:23:16;;;;;;;11.32;10.23;;;;;;;1.41;78.00;99242.81;5029084;28;20202;-74
2024/01/29 04:25:43;;;;;;;11.57;10.38;;;;;;;1.42;77.84;99243.66;5027244;28;20205;-74
2024/01/29 04:28:09;;;;;;;12.30;11.00;;;;;;;1.30;78.19;99243.59;5026183;28;20198;-74
2024/01/29 04:30:36;;;;;;;12.00;10.80;;;;;;;1.29;78.23;99243.75;5028391;28;20279;-74
2024/01/29 04:33:04;;;;;;;12.02;10.82;;;;;;;1.27;78.21;99241.19;5035403;28;20210;-74
2024/01/29 04:35:30;;;;;;;12.15;10.95;;;;;;;1.23;78.17;99239.72;5035663;28;20198;-74
2024/01/29 04:37:58;;;;;;;11.40;10.20;;;;;;;1.24;78.61;99246.75;5028174;28;20252;-74
2024/01/29 04:40:26;;;;;;;11.38;10.25;;;;;;;1.14;78.88;99248.38;5027563;28;20194;-74
2024/01/29 04:42:52;;;;;;;11.30;10.20;;;;;;;1.07;79.23;99249.78;5027122;28;20619;-74
2024/01/29 04:45:19;;;;;;;11.50;10.40;;;;;;;1.05;79.25;99254.38;5029339;28;20206;-74
2024/01/29 04:47:45;;;;;;;11.90;10.55;;;;;;;1.12;78.93;99250.31;5027905;28;20218;-74
2024/01/29 04:50:12;;;;;;;11.35;10.15;;;;;;;1.11;78.93;99242.44;5026445;28;20193;-74
2024/01/29 04:52:38;;;;;;;11.82;10.40;;;;;;;1.01;79.29;99239.56;5025014;28;20206;-74
2024/01/29 04:55:06;;;;;;;11.15;10.05;;;;;;;1.07;79.27;99243.63;5027381;28;20216;-74
2024/01/29 04:57:34;;;;;;;11.88;10.55;;;;;;;0.98;79.16;99250.47;5029055;28;20202;-75
2024/01/29 05:00:02;;;;;;;12.32;11.13;;;;;;;0.97;79.53;99248.78;5026735;28;20208;-73
2024/01/29 05:02:29;;;;;;;12.00;10.80;;;;;;;0.93;79.42;99245.50;5025720;28;20197;-73
2024/01/29 05:04:56;;;;;;;10.73;9.63;;;;;;;0.86;79.95;99252.22;5029731;28;20208;-73
2024/01/29 05:07:23;;;;;;;13.25;10.95;;;;;;;0.80;80.24;99244.66;5032719;28;20279;-72
2024/01/29 05:09:49;;;;;;;11.13;10.02;;;;;;;0.75;80.28;99248.63;5020480;28;20205;-74
2024/01/29 05:12:16;;;;;;;12.23;11.02;;;;;;;0.83;80.34;99251.59;5031341;28;20205;-73
2024/01/29 05:14:44;;;;;;;11.75;10.55;;;;;;;0.65;80.74;99249.28;5032068;28;20208;-72
2024/01/29 05:17:10;;;;;;;11.73;10.52;;;;;;;0.66;81.04;99264.31;5032412;28;20670;-78
2024/01/29 05:19:38;;;;;;;11.43;10.23;;;;;;;0.81;80.43;99259.69;5011764;28;20684;-71
2024/01/29 05:22:05;;;;;;;12.52;10.45;;;;;;;0.75;80.65;99261.94;5040447;28;20206;-71
2024/01/29 05:24:31;;;;;;;10.80;9.73;;;;;;;0.74;80.61;99260.25;5031731;28;20205;-73
2024/01/29 05:26:58;;;;;;;11.88;10.60;;;;;;;0.74;81.06;99261.09;5030848;28;20224;-72
2024/01/29 05:29:24;;;;;;;12.20;10.90;;;;;;;0.65;81.12;99265.25;5032633;28;20206;-72
2024/01/29 05:31:52;;;;;;;12.07;10.75;;;;;;;0.60;81.23;99264.75;5032072;28;20207;-71
2024/01/29 05:34:19;;;;;;;10.73;9.43;;;;;;;0.72;80.64;99271.00;5028695;28;20224;-72
2024/01/29 05:36:45;;;;;;;11.77;10.43;;;;;;;0.72;80.58;99267.50;5030615;28;20210;-72
2024/01/29 05:39:12;;;;;;;11.27;10.18;;;;;;;0.70;80.56;99264.09;5029961;28;20568;-71
2024/01/29 05:41:38;;;;;;;10.73;9.63;;;;;;;0.68;80.47;99270.38;5022786;28;20544;-72
2024/01/29 05:44:05;;;;;;;10.90;9.82;;;;;;;0.67;80.69;99266.00;5032983;28;20297;-72
2024/01/29 05:46:32;;;;;;;11.30;10.20;;;;;;;0.57;80.78;99272.97;5032623;28;20564;-72
2024/01/29 05:48:59;;;;;;;11.23;10.23;;;;;;;0.61;80.88;99269.13;5031059;28;20204;-72
2024/01/29 05:51:26;;;;;;;11.15;10.05;;;;;;;0.54;81.04;99270.53;5031155;28;20205;-72
2024/01/29 05:53:52;;;;;;;11.35;10.05;;;;;;;0.52;81.14;99272.44;5015337;28;20568;-73
2024/01/29 05:56:19;;;;;;;11.40;10.30;;;;;;;0.61;80.96;99279.78;5025621;28;20240;-72
2024/01/29 05:58:46;;;;;;;11.82;10.57;;;;;;;0.55;81.07;99277.56;5028317;28;20212;-72
2024/01/29 06:01:13;;;;;;;12.50;10.30;;;;;;;0.55;81.08;99277.56;5031484;28;20742;-72
2024/01/29 06:03:39;;;;;;;11.70;10.48;;;;;;;0.55;80.98;99284.69;5040149;28;20841;-76
2024/01/29 06:06:07;;;;;;;11.40;10.18;;;;;;;0.54;81.21;99275.84;5022985;28;20206;-71
2024/01/29 06:08:34;;;;;;;12.18;10.65;;;;;;;0.64;80.87;99273.38;5026907;28;20992;-73
2024/01/29 06:11:00;;;;;;;12.10;10.68;;;;;;;0.58;80.88;99273.81;5023394;28;20212;-71
2024/01/29 06:13:28;;;;;;;12.82;11.60;;;;;;;0.44;81.42;99277.44;5029890;28;20716;-71
2024/01/29 06:15:55;;;;;;;11.77;10.55;;;;;;;0.46;81.83;99280.84;5025163;28;20224;-72
2024/01/29 06:18:22;;;;;;;10.50;9.50;;;;;;;0.39;81.95;99284.91;5017618;28;20194;-71
2024/01/29 06:20:49;;;;;;;11.95;10.00;;;;;;;0.47;81.85;99287.88;5016569;28;20198;-72
2024/01/29 06:23:19;;;;;;;10.60;9.50;;;;;;;0.46;81.75;99283.53;5022715;28;20240;-73
2024/01/29 06:25:46;;;;;;;11.63;10.43;;;;;;;0.40;82.04;99280.44;5024545;28;20735;-71
2024/01/29 06:28:12;;;;;;;11.90;10.80;;;;;;;0.34;81.91;99271.91;5021073;28;20300;-72
2024/01/29 06:30:39;;;;;;;10.88;9.77;;;;;;;0.50;81.45;99285.00;5027042;28;20202;-71
2024/01/29 06:33:05;;;;;;;11.27;10.07;;;;;;;0.49;81.43;99280.66;5026655;28;20714;-71
2024/01/29 06:35:32;;;;;;;10.25;9.25;;;;;;;0.48;81.59;99273.63;5025396;28;20201;-72
2024/01/29 06:37:58;;;;;;;13.00;10.68;;;;;;;0.48;81.55;99284.25;5029026;28;20213;-71
2024/01/29 06:40:27;;;;;;;11.40;10.15;;;;;;;0.45;81.30;99287.13;5025250;28;20689;-71
2024/01/29 06:42:54;;;;;;;10.73;9.65;;;;;;;0.46;81.37;99291.50;5026060;28;20206;-74
2024/01/29 06:45:33;;;;;;;12.65;10.98;;;;;;;0.48;81.22;99288.75;5007565;28;20202;-76
2024/01/29 06:47:59;;;;;;;13.25;10.15;;;;;;;0.42;81.45;99294.50;5027778;28;20784;-74
2024/01/29 06:50:26;;;;;;;11.93;10.73;;;;;;;0.40;81.50;99302.59;5030890;28;20285;-73
2024/01/29 06:52:52;;;;;;;11.57;10.38;;;;;;;0.38;81.84;99299.16;5029285;28;20206;-73
2024/01/29 06:55:20;;;;;;;15.20;11.15;;;;;;;0.42;81.80;99294.50;5008470;28;20213;-71
2024/01/29 06:57:48;;;;;;;10.07;8.95;;;;;;;0.51;81.34;99302.69;5019271;28;20234;-71
2024/01/29 07:00:15;;;;;;;10.60;9.50;;;;;;;0.53;81.26;99316.75;5018723;28;20212;-71
2024/01/29 07:02:41;;;;;;;10.07;9.13;;;;;;;0.56;80.92;99297.91;5018231;28;20210;-71
2024/01/29 07:05:08;;;;;;;10.65;9.55;;;;;;;0.47;81.30;99297.69;5027802;28;20206;-71
2024/01/29 07:07:35;;;;;;;11.43;10.20;;;;;;;0.53;81.17;99299.91;5030073;28;20249;-72
2024/01/29 07:10:01;;;;;;;9.65;8.68;;;;;;;0.61;80.70;99301.09;5038055;28;20256;-71
2024/01/29 07:12:28;;;;;;;12.00;10.27;;;;;;;0.54;80.84;99306.94;5019699;28;20210;-71
2024/01/29 07:14:56;;;;;;;10.65;9.55;;;;;;;0.62;80.71;99308.13;5026750;28;20209;-71
2024/01/29 07:17:22;;;;;;;11.77;10.50;;;;;;;0.74;80.38;99321.50;5020282;28;20202;-71
2024/01/29 07:19:51;;;;;;;11.15;10.02;;;;;;;0.89;79.61;99310.63;5019157;28;20675;-71
2024/01/29 07:22:19;;;;;;;11.52;10.32;;;;;;;0.92;79.49;99306.91;5018933;28;20200;-71
2024/01/29 07:24:48;;;;;;;11.52;10.43;;;;;;;0.85;79.08;99308.28;5025444;28;20209;-72
2024/01/29 07:27:15;;;;;;;10.55;9.55;;;;;;;0.94;79.41;99318.28;5017418;28;20221;-70
2024/01/29 07:29:42;;;;;;;11.40;10.27;;;;;;;0.87;79.54;99322.34;5029046;28;20213;-70
2024/01/29 07:32:09;;;;;;;11.35;10.15;;;;;;;0.81;79.88;99320.97;5022855;28;20545;-70
2024/01/29 07:34:36;;;;;;;11.38;10.30;;;;;;;0.84;79.91;99317.25;5024294;28;20295;-70
2024/01/29 07:37:03;;;;;;;11.55;10.45;;;;;;;0.89;79.78;99325.75;5023995;28;20197;-70
2024/01/29 07:39:30;;;;;;;12.30;11.00;;;;;;;1.00;79.51;99324.00;5027770;28;20577;-69
2024/01/29 07:41:56;;;;;;;11.25;10.05;;;;;;;1.12;79.14;99327.63;5023169;28;20256;-70
2024/01/29 07:44:23;;;;;;;10.35;9.35;;;;;;;1.14;78.88;99323.03;5027756;28;20213;-71
2024/01/29 07:46:49;;;;;;;12.20;10.98;;;;;;;1.14;78.83;99325.69;5027961;28;20201;-70
2024/01/29 07:49:17;;;;;;;10.77;9.82;;;;;;;1.29;78.51;99329.94;5024106;28;20190;-70
2024/01/29 07:51:44;;;;;;;11.82;10.27;;;;;;;1.37;77.86;99332.00;5021680;28;20220;-71
2024/01/29 07:54:11;;;;;;;11.45;10.07;;;;;;;1.49;77.22;99335.59;5020562;28;20285;-71
2024/01/29 07:56:39;;;;;;;9.85;8.93;;;;;;;1.55;76.93;99330.66;5017012;28;20206;-71
2024/01/29 07:59:06;;;;;;;10.13;9.20;;;;;;;1.72;76.50;99326.72;5025426;28;20213;-70
2024/01/29 08:01:32;;;;;;;10.23;9.23;;;;;;;1.79;75.97;99335.13;5019874;28;20286;-70
2024/01/29 08:04:01;;;;;;;11.45;10.45;;;;;;;1.75;76.08;99331.84;5024592;28;20671;-70
2024/01/29 08:06:29;;;;;;;9.93;8.70;;;;;;;1.88;75.74;99335.31;5022592;28;20686;-70
2024/01/29 08:08:56;;;;;;;11.43;10.32;;;;;;;2.02;75.46;99329.75;5028364;28;20218;-70
2024/01/29 08:11:22;;;;;;;11.20;10.10;;;;;;;2.02;75.13;99328.91;5024587;28;20200;-71
2024/01/29 08:13:50;;;;;;;10.10;9.10;;;;;;;2.09;75.07;99335.47;5024656;28;20210;-70
2024/01/29 08:16:16;;;;;;;10.85;9.43;;;;;;;2.21;74.69;99334.56;5022116;28;20205;-71
2024/01/29 08:18:43;;;;;;;11.95;10.75;;;;;;;2.31;74.43;99338.19;5025535;28;20281;-70
2024/01/29 08:21:09;;;;;;;9.70;8.80;;;;;;;2.51;73.38;99342.03;5017902;28;20205;-70
2024/01/29 08:23:37;;;;;;;9.68;8.65;;;;;;;2.51;73.09;99355.38;5023624;28;20220;-70
2024/01/29 08:26:04;;;;;;;10.10;9.00;;;;;;;2.58;72.70;99359.28;5024574;28;20974;-70
2024/01/29 08:28:30;;;;;;;10.00;9.00;;;;;;;2.49;73.01;99354.66;5025298;28;20244;-70
2024/01/29 08:30:59;;;;;;;10.13;9.10;;;;;;;2.58;72.51;99356.63;5025004;28;20244;-71
2024/01/29 08:33:25;;;;;;;9.95;9.05;;;;;;;2.72;72.56;99360.00;5025493;28;20288;-70
2024/01/29 08:35:52;;;;;;;12.05;9.32;;;;;;;3.28;70.46;99351.00;5026888;28;20206;-70
2024/01/29 08:38:19;;;;;;;9.68;8.73;;;;;;;3.69;69.32;99349.44;5017031;28;20575;-70
2024/01/29 08:40:47;;;;;;;13.30;9.88;;;;;;;3.87;68.09;99355.13;5024373;28;20571;-70
2024/01/29 08:43:13;;;;;;;10.57;9.48;;;;;;;3.76;67.99;99350.66;5020249;28;20216;-71
2024/01/29 08:45:40;;;;;;;10.50;9.55;;;;;;;3.78;68.17;99354.06;5023485;28;20206;-70
2024/01/29 08:48:07;;;;;;;9.88;8.98;;;;;;;4.21;67.06;99355.84;5021044;28;20229;-70
2024/01/29 08:50:34;;;;;;;9.90;9.00;;;;;;;4.46;65.95;99347.41;5021878;28;20208;-71
2024/01/29 08:53:02;;;;;;;10.55;9.35;;;;;;;4.83;64.91;99361.16;5019733;28;21592;-71
2024/01/29 08:55:29;;;;;;;10.65;9.63;;;;;;;5.00;64.22;99357.84;5025449;28;20224;-71
2024/01/29 08:57:57;;;;;;;10.30;8.95;;;;;;;5.23;63.91;99360.31;5021227;28;20221;-71
2024/01/29 09:00:24;;;;;;;10.82;9.75;;;;;;;5.54;62.36;99361.13;5022264;28;20303;-71
2024/01/29 09:02:50;;;;;;;10.82;9.82;;;;;;;6.02;60.77;99361.25;5024661;28;20210;-71
2024/01/29 09:05:17;;;;;;;9.63;8.77;;;;;;;6.70;58.86;99364.72;5026278;28;20296;-72
2024/01/29 09:07:43;;;;;;;10.98;9.10;;;;;;;6.93;57.75;99357.16;5026935;28;20233;-70
2024/01/29 09:10:10;;;;;;;9.63;8.50;;;;;;;7.49;56.55;99353.50;5023547;28;20292;-71
2024/01/29 09:12:37;;;;;;;9.30;8.40;;;;;;;8.07;54.90;99357.53;5024595;28;20201;-71
2024/01/29 09:15:06;;;;;;;9.00;8.20;;;;;;;8.12;54.60;99367.00;5027981;28;20198;-71
2024/01/29 09:17:33;;;;;;;9.27;8.45;;;;;;;7.94;54.29;99369.69;5020211;28;20525;-71
2024/01/29 09:19:59;;;;;;;9.88;8.68;;;;;;;8.24;53.45;99360.34;5026412;28;20289;-71
2024/01/29 09:22:26;;;;;;;8.50;7.75;;;;;;;8.40;52.95;99357.84;5027499;28;20332;-71
2024/01/29 09:24:52;;;;;;;8.30;7.53;;;;;;;8.50;52.14;99358.59;5024104;28;20703;-71
2024/01/29 09:27:19;;;;;;;8.80;8.10;;;;;;;8.89;51.59;99371.69;5024710;28;20284;-71
2024/01/29 09:29:45;;;;;;;8.70;7.90;;;;;;;9.00;51.82;99364.19;5025593;28;20213;-71
2024/01/29 09:32:13;;;;;;;9.07;8.25;;;;;;;9.71;50.21;99358.44;5027854;28;20212;-71
2024/01/29 09:34:40;;;;;;;9.40;8.60;;;;;;;9.26;50.36;99366.88;5024716;28;20212;-71
2024/01/29 09:37:06;;;;;;;9.27;8.48;;;;;;;8.84;51.52;99379.41;5027647;28;20281;-71
2024/01/29 09:39:33;;;;;;;8.90;8.10;;;;;;;8.63;51.50;99372.53;5027378;28;20208;-72
2024/01/29 09:42:04;;;;;;;8.95;8.10;;;;;;;8.43;52.29;99378.28;5025720;28;20204;-71
2024/01/29 09:44:37;;;;;;;9.07;8.27;;;;;;;9.28;51.16;99374.81;5025596;28;20317;-71
2024/01/29 09:47:05;;;;;;;8.50;7.70;;;;;;;9.70;49.33;99369.41;5025619;28;20337;-72
2024/01/29 09:49:34;;;;;;;9.23;8.20;;;;;;;10.47;47.74;99376.34;5027181;28;20226;-72
2024/01/29 09:52:01;;;;;;;8.17;7.50;;;;;;;10.86;47.40;99373.81;5028591;28;20696;-71
2024/01/29 09:54:28;;;;;;;8.63;7.93;;;;;;;11.02;46.03;99387.34;5029709;28;20647;-72
2024/01/29 09:56:54;;;;;;;8.73;8.00;;;;;;;11.82;43.87;99378.28;5030508;28;20971;-71
2024/01/29 09:59:21;;;;;;;9.30;8.50;;;;;;;12.63;42.73;99377.75;5031012;28;20644;-71
2024/01/29 10:01:48;;;;;;;8.20;7.50;;;;;;;12.42;42.24;99372.97;5028285;28;20715;-72
2024/01/29 10:04:14;;;;;;;9.03;8.13;;;;;;;12.64;42.29;99377.59;5027095;28;20632;-72
2024/01/29 10:06:42;;;;;;;8.97;8.17;;;;;;;12.13;42.55;99376.41;5025757;28;21171;-72
2024/01/29 10:09:11;;;;;;;8.90;7.90;;;;;;;11.56;43.56;99381.25;5028697;28;20660;-72
2024/01/29 10:11:41;;;;;;;8.47;7.67;;;;;;;10.98;45.14;99380.56;5038045;28;20649;-74
2024/01/29 10:14:08;;;;;;;8.80;8.00;;;;;;;10.54;46.76;99382.78;5030309;28;20640;-72
2024/01/29 10:16:35;;;;;;;9.03;8.30;;;;;;;10.41;47.23;99382.44;5022919;28;20630;-71
2024/01/29 10:19:03;;;;;;;8.53;7.83;;;;;;;10.35;47.47;99377.72;5025625;28;20646;-71
2024/01/29 10:21:38;;;;;;;8.75;7.95;;;;;;;9.76;48.69;99382.25;5027826;28;21062;-71
2024/01/29 10:24:11;;;;;;;8.60;7.85;;;;;;;10.39;48.05;99389.91;5025654;28;20212;-73
2024/01/29 10:26:37;;;;;;;8.90;8.00;;;;;;;10.42;47.18;99384.13;5027744;28;20226;-72
2024/01/29 10:29:05;;;;;;;8.17;7.47;;;;;;;10.59;47.27;99385.84;5018053;28;20224;-71
2024/01/29 10:31:33;;;;;;;9.10;8.20;;;;;;;11.13;46.34;99369.00;5028375;28;20724;-74
2024/01/29 10:33:59;;;;;;;8.73;7.83;;;;;;;11.33;45.75;99373.88;5028342;28;20666;-72
2024/01/29 10:36:27;;;;;;;8.90;8.10;;;;;;;11.80;44.99;99374.91;5019013;28;20731;-73
2024/01/29 10:38:54;;;;;;;8.47;7.77;;;;;;;12.17;43.87;99376.91;5029482;28;20653;-72
2024/01/29 10:41:23;;;;;;;8.80;8.00;;;;;;;12.22;43.88;99377.22;5029204;28;20632;-72
2024/01/29 10:43:51;;;;;;;8.13;7.43;;;;;;;12.21;43.75;99373.66;5023615;28;20620;-72
2024/01/29 10:46:20;;;;;;;8.53;7.80;;;;;;;12.19;44.09;99381.13;5028026;28;20740;-72
2024/01/29 10:48:46;;;;;;;9.00;8.03;;;;;;;12.65;42.80;99376.56;5030564;28;20655;-72
2024/01/29 10:51:14;;;;;;;8.67;7.87;;;;;;;13.03;41.60;99368.38;5029533;28;20711;-72
2024/01/29 10:53:41;;;;;;;9.03;8.13;;;;;;;13.50;40.88;99359.06;5027501;28;20717;-72
2024/01/29 10:56:08;;;;;;;8.70;7.90;;;;;;;13.21;41.15;99355.31;5028680;28;20643;-72
2024/01/29 10:58:37;;;;;;;8.23;7.50;;;;;;;13.40;41.17;99353.91;5030171;28;20620;-72
2024/01/29 11:01:05;;;;;;;9.30;8.50;;;;;;;13.12;41.10;99353.69;5026156;28;20636;-72
2024/01/29 11:03:32;;;;;;;9.30;7.23;;;;;;;13.02;41.70;99355.81;5026612;28;20690;-72
2024/01/29 11:06:00;;;;;;;8.13;7.43;;;;;;;12.95;41.91;99354.88;5024428;28;20699;-72
2024/01/29 11:08:31;;;;;;;7.60;7.00;;;;;;;12.37;42.44;99354.50;5026121;28;20656;-73
2024/01/29 11:10:58;;;;;;;8.20;7.50;;;;;;;12.82;42.20;99347.34;5001245;28;21045;-73
2024/01/29 11:13:24;;;;;;;8.13;7.33;;;;;;;13.46;40.92;99342.28;5023364;28;20628;-73
2024/01/29 11:15:52;;;;;;;8.20;7.50;;;;;;;12.92;41.14;99342.50;5027243;28;21566;-73
2024/01/29 11:18:18;;;;;;;7.80;7.17;;;;;;;13.29;41.19;99346.25;5045123;28;20719;-73
2024/01/29 11:20:45;;;;;;;7.80;7.10;;;;;;;13.70;40.71;99341.13;5026730;28;20613;-73
2024/01/29 11:23:14;;;;;;;7.40;6.80;;;;;;;14.20;39.92;99332.09;5026148;28;20708;-74
2024/01/29 11:25:41;;;;;;;8.00;7.17;;;;;;;14.31;39.69;99322.53;5024001;28;20629;-74
2024/01/29 11:28:08;;;;;;;8.40;7.70;;;;;;;15.00;38.62;99326.31;5025599;28;20700;-73
2024/01/29 11:30:35;;;;;;;7.40;6.80;;;;;;;14.98;38.45;99324.81;5029594;28;21261;-73